Time;durP1;ratioP1;P1;durP2;ratioP2;P2;SDS_P1;SDS_P2;PMS_P1;PMS_P2;Temp;Humidity;BMP_temperature;BMP_pressure;BME280_temperature;BME280_humidity;BME280_pressure;Samples;Min_cycle;Max_cycle;Signal;HPM_P1;HPM_P2
2021/01/09 00:01:21;;;;;;;4.35;3.35;;;-2.10;99.90;;;;;;5052388;28;20389;-74
2021/01/09 00:03:47;;;;;;;5.88;3.65;;;-2.00;99.90;;;;;;5050612;28;20417;-74
2021/01/09 00:06:13;;;;;;;5.25;3.50;;;-2.40;99.90;;;;;;5052122;28;20547;-74
2021/01/09 00:08:39;;;;;;;4.97;3.57;;;-2.40;99.90;;;;;;5051841;28;20377;-75
2021/01/09 00:11:05;;;;;;;4.60;3.22;;;-2.10;99.90;;;;;;5052613;28;20699;-74
2021/01/09 00:13:31;;;;;;;5.57;4.10;;;-1.50;99.90;;;;;;5052260;28;20389;-74
2021/01/09 00:15:57;;;;;;;5.00;3.28;;;-2.30;99.90;;;;;;5051640;28;20743;-74
2021/01/09 00:18:23;;;;;;;5.85;3.25;;;-1.90;99.90;;;;;;5052554;28;20378;-74
2021/01/09 00:20:49;;;;;;;4.27;3.40;;;-2.00;99.90;;;;;;5051455;28;20385;-74
2021/01/09 00:23:15;;;;;;;4.32;2.70;;;-2.50;99.90;;;;;;5052015;28;20409;-74
2021/01/09 00:25:40;;;;;;;4.60;3.00;;;-1.80;99.90;;;;;;5051344;28;20436;-75
2021/01/09 00:28:06;;;;;;;3.47;2.70;;;-2.50;99.90;;;;;;5050393;28;20385;-75
2021/01/09 00:30:32;;;;;;;5.57;4.03;;;-2.50;99.90;;;;;;5052114;28;20378;-75
2021/01/09 00:32:58;;;;;;;5.07;3.33;;;-2.30;99.90;;;;;;5051045;28;20439;-75
2021/01/09 00:35:24;;;;;;;4.00;3.17;;;-1.30;99.90;;;;;;5051892;28;20890;-75
2021/01/09 00:37:50;;;;;;;4.10;2.53;;;-2.10;99.90;;;;;;5051104;28;20382;-75
2021/01/09 00:40:15;;;;;;;6.65;3.72;;;-2.20;99.90;;;;;;5051846;28;20476;-75
2021/01/09 00:42:44;;;;;;;4.63;3.20;;;-2.50;99.90;;;;;;5050783;28;20841;-76
2021/01/09 00:45:10;;;;;;;4.37;3.00;;;-2.20;99.90;;;;;;5051759;28;20397;-75
2021/01/09 00:47:36;;;;;;;4.82;3.15;;;-2.20;99.90;;;;;;5051611;28;20408;-75
2021/01/09 00:50:03;;;;;;;4.45;3.60;;;-2.60;99.90;;;;;;5051042;28;20861;-75
2021/01/09 00:52:28;;;;;;;5.28;3.35;;;-2.10;99.90;;;;;;5051950;28;20392;-75
2021/01/09 00:54:54;;;;;;;6.53;3.13;;;-2.30;99.90;;;;;;5050889;28;20376;-75
2021/01/09 00:57:20;;;;;;;3.70;2.70;;;-2.10;99.90;;;;;;5051234;28;20386;-75
2021/01/09 00:59:48;;;;;;;3.93;2.90;;;-2.20;99.90;;;;;;5050970;28;20386;-75
2021/01/09 01:02:13;;;;;;;3.92;2.88;;;-0.30;99.90;;;;;;5051161;28;20393;-75
2021/01/09 01:04:39;;;;;;;7.95;3.38;;;-2.40;99.90;;;;;;5051294;28;20941;-75
2021/01/09 01:07:05;;;;;;;5.80;3.60;;;-2.00;99.90;;;;;;5050662;28;20465;-75
2021/01/09 01:09:30;;;;;;;5.70;3.50;;;0.20;99.90;;;;;;5051336;28;20382;-75
2021/01/09 01:11:56;;;;;;;5.07;3.35;;;-2.60;99.90;;;;;;5050646;28;20388;-76
2021/01/09 01:14:21;;;;;;;3.28;2.85;;;-2.20;99.90;;;;;;5050209;28;20933;-75
2021/01/09 01:16:51;;;;;;;3.90;2.67;;;-3.00;99.90;;;;;;5049349;28;20433;-76
2021/01/09 01:19:16;;;;;;;4.68;3.00;;;-2.40;99.90;;;;;;5051136;28;20469;-75
2021/01/09 01:21:42;;;;;;;6.27;2.97;;;-2.00;99.90;;;;;;5051225;28;20425;-75
2021/01/09 01:24:08;;;;;;;4.78;2.80;;;-2.40;99.90;;;;;;5051130;28;20743;-74
2021/01/09 01:26:35;;;;;;;3.13;2.80;;;-2.50;99.90;;;;;;5050962;28;20878;-76
2021/01/09 01:29:00;;;;;;;3.72;2.95;;;-2.60;99.90;;;;;;5050510;28;20464;-76
2021/01/09 01:31:26;;;;;;;4.10;2.80;;;-2.40;99.90;;;;;;5050567;28;20841;-74
2021/01/09 01:33:52;;;;;;;4.63;3.00;;;-2.60;99.90;;;;;;5050127;28;20454;-74
2021/01/09 01:36:18;;;;;;;4.20;2.90;;;-2.40;99.90;;;;;;5050875;28;20474;-74
2021/01/09 01:38:44;;;;;;;5.25;2.70;;;-2.70;99.90;;;;;;5050220;28;20486;-77
2021/01/09 01:41:10;;;;;;;4.50;3.20;;;-2.50;99.90;;;;;;5050676;28;20436;-76
2021/01/09 01:43:36;;;;;;;4.38;2.70;;;-2.70;99.90;;;;;;5050818;28;20787;-76
2021/01/09 01:46:04;;;;;;;4.70;2.88;;;-2.50;99.90;;;;;;5050016;28;20483;-76
2021/01/09 01:48:30;;;;;;;4.18;3.20;;;-2.70;99.90;;;;;;5051170;28;20400;-74
2021/01/09 01:50:56;;;;;;;4.38;2.80;;;-1.00;99.90;;;;;;5049927;28;20386;-75
2021/01/09 01:53:22;;;;;;;3.80;2.90;;;-2.40;99.90;;;;;;5050692;28;20468;-74
2021/01/09 01:55:49;;;;;;;4.00;2.87;;;-2.70;99.90;;;;;;5050258;28;20507;-76
2021/01/09 01:58:15;;;;;;;4.75;2.83;;;-2.60;99.90;;;;;;5050784;28;20389;-75
2021/01/09 02:00:46;;;;;;;3.17;2.70;;;-2.90;99.90;;;;;;5051054;28;20386;-75
2021/01/09 02:03:12;;;;;;;4.20;3.00;;;-2.50;99.90;;;;;;5050668;28;20516;-75
2021/01/09 02:05:42;;;;;;;4.22;3.05;;;-2.50;99.90;;;;;;5051083;28;20382;-75
2021/01/09 02:08:11;;;;;;;4.57;2.80;;;-2.90;99.90;;;;;;5049976;28;20420;-75
2021/01/09 02:10:38;;;;;;;4.35;2.50;;;-3.10;99.90;;;;;;5050620;28;20381;-75
2021/01/09 02:13:23;;;;;;;6.07;3.20;;;-0.40;99.90;;;;;;5050312;28;20503;-75
2021/01/09 02:15:52;;;;;;;3.53;2.40;;;-2.80;99.90;;;;;;5050187;28;20420;-76
2021/01/09 02:18:19;;;;;;;3.00;2.00;;;-2.80;99.90;;;;;;5053559;28;20399;-76
2021/01/09 02:20:49;;;;;;;4.75;2.40;;;-2.50;99.90;;;;;;5054824;28;20780;-75
2021/01/09 02:23:15;;;;;;;4.60;2.60;;;-1.90;99.90;;;;;;5054248;28;20517;-75
2021/01/09 02:25:40;;;;;;;3.47;2.40;;;-1.30;99.90;;;;;;5053104;28;20464;-75
2021/01/09 02:28:06;;;;;;;3.78;2.53;;;-2.70;99.90;;;;;;5053674;28;20670;-75
2021/01/09 02:30:34;;;;;;;4.05;2.58;;;-2.40;99.90;;;;;;5054368;28;20370;-74
2021/01/09 02:33:03;;;;;;;4.72;2.70;;;-2.60;99.90;;;;;;5053655;28;20433;-75
2021/01/09 02:35:33;;;;;;;4.10;2.95;;;-3.10;99.90;;;;;;5054492;28;20390;-75
2021/01/09 02:37:59;;;;;;;5.45;3.25;;;-2.60;99.90;;;;;;5053479;28;20472;-75
2021/01/09 02:40:24;;;;;;;5.53;2.60;;;-2.50;99.90;;;;;;5054189;28;20551;-75
2021/01/09 02:42:50;;;;;;;3.92;2.80;;;-2.80;99.90;;;;;;5052917;28;20467;-75
2021/01/09 02:45:16;;;;;;;3.55;2.47;;;-2.50;99.90;;;;;;5054185;28;20468;-75
2021/01/09 02:47:42;;;;;;;3.00;2.30;;;-0.70;99.90;;;;;;5053923;28;20382;-74
2021/01/09 02:50:11;;;;;;;4.15;2.78;;;-2.80;99.90;;;;;;5053007;28;20787;-75
2021/01/09 02:52:39;;;;;;;3.47;2.30;;;-2.40;99.90;;;;;;5053728;28;20392;-74
2021/01/09 02:55:06;;;;;;;4.13;3.00;;;-2.80;99.90;;;;;;5053226;28;20381;-74
2021/01/09 02:57:31;;;;;;;4.18;2.72;;;-2.30;99.90;;;;;;5053781;28;20385;-74
2021/01/09 02:59:57;;;;;;;4.47;3.13;;;-2.30;99.90;;;;;;5053174;28;20738;-75
2021/01/09 03:02:23;;;;;;;4.10;2.57;;;-2.60;99.90;;;;;;5053661;28;20424;-75
2021/01/09 03:04:49;;;;;;;3.00;2.40;;;-2.80;99.90;;;;;;5053520;28;20397;-75
2021/01/09 03:07:14;;;;;;;4.10;2.60;;;-2.70;99.90;;;;;;5053840;28;20385;-74
2021/01/09 03:09:40;;;;;;;4.57;2.47;;;-2.60;99.90;;;;;;5053470;28;20730;-74
2021/01/09 03:12:07;;;;;;;3.37;2.17;;;-2.60;99.90;;;;;;5051636;28;20393;-74
2021/01/09 03:14:33;;;;;;;4.15;2.60;;;-2.20;99.90;;;;;;5053334;28;20388;-74
2021/01/09 03:16:58;;;;;;;3.50;2.50;;;-1.70;99.90;;;;;;5052547;28;20742;-75
2021/01/09 03:19:24;;;;;;;2.80;2.30;;;-2.20;99.90;;;;;;5052859;28;20385;-74
2021/01/09 03:21:50;;;;;;;4.75;2.67;;;-2.50;99.90;;;;;;5053043;28;20431;-75
2021/01/09 03:24:16;;;;;;;3.90;2.50;;;-2.80;99.90;;;;;;5053167;28;20804;-75
2021/01/09 03:26:41;;;;;;;4.85;2.60;;;-2.50;99.90;;;;;;5053242;28;20385;-75
2021/01/09 03:29:07;;;;;;;2.80;2.20;;;-2.70;99.90;;;;;;5051853;28;20385;-75
2021/01/09 03:31:33;;;;;;;3.90;2.50;;;-2.20;99.90;;;;;;5053157;28;20385;-74
2021/01/09 03:33:58;;;;;;;3.35;2.60;;;-2.80;99.90;;;;;;5052311;28;20381;-74
2021/01/09 03:36:24;;;;;;;3.27;2.30;;;-2.70;99.90;;;;;;5053287;28;20388;-75
2021/01/09 03:38:50;;;;;;;3.17;2.40;;;-2.90;99.90;;;;;;5052880;28;20838;-74
2021/01/09 03:41:15;;;;;;;3.67;2.40;;;-2.80;99.90;;;;;;5052389;28;20401;-75
2021/01/09 03:43:41;;;;;;;2.90;2.30;;;-2.60;99.90;;;;;;5052756;28;20405;-75
2021/01/09 03:46:06;;;;;;;4.47;2.43;;;-2.40;99.90;;;;;;5052351;28;20385;-75
2021/01/09 03:48:32;;;;;;;3.50;1.90;;;-2.00;99.90;;;;;;5052766;28;20373;-75
2021/01/09 03:50:58;;;;;;;2.95;2.13;;;-2.60;99.90;;;;;;5052068;28;20442;-75
2021/01/09 03:53:23;;;;;;;4.10;2.28;;;-2.90;99.90;;;;;;5052672;28;20423;-75
2021/01/09 03:55:49;;;;;;;2.67;1.92;;;-2.80;99.90;;;;;;5052693;28;20378;-75
2021/01/09 03:58:15;;;;;;;4.33;2.50;;;-2.70;99.90;;;;;;5051988;28;20398;-75
2021/01/09 04:00:40;;;;;;;3.37;2.40;;;-2.50;99.90;;;;;;5052137;28;20387;-75
2021/01/09 04:03:06;;;;;;;4.55;2.38;;;-2.90;99.90;;;;;;5051703;28;20467;-75
2021/01/09 04:05:31;;;;;;;2.88;2.35;;;-2.60;99.90;;;;;;5052512;28;20436;-75
2021/01/09 04:07:57;;;;;;;3.30;2.30;;;-2.60;99.90;;;;;;5052071;28;20443;-75
2021/01/09 04:10:23;;;;;;;4.40;2.37;;;-0.80;99.90;;;;;;5052211;28;20396;-75
2021/01/09 04:12:48;;;;;;;3.60;2.42;;;-2.20;99.90;;;;;;5052344;28;20389;-75
2021/01/09 04:15:14;;;;;;;4.00;2.30;;;-2.00;99.90;;;;;;5051638;28;20722;-75
2021/01/09 04:17:40;;;;;;;3.20;1.80;;;-2.30;99.90;;;;;;5052235;28;20442;-75
2021/01/09 04:20:07;;;;;;;2.90;2.30;;;-2.60;99.90;;;;;;5051522;28;20736;-75
2021/01/09 04:22:32;;;;;;;3.10;2.50;;;-2.40;99.90;;;;;;5051961;28;20494;-75
2021/01/09 04:24:58;;;;;;;3.13;2.00;;;-0.80;99.90;;;;;;5051434;28;20421;-75
2021/01/09 04:27:23;;;;;;;2.88;1.83;;;-2.60;99.90;;;;;;5051719;28;20460;-75
2021/01/09 04:29:49;;;;;;;2.85;2.55;;;-2.70;99.90;;;;;;5052301;28;20381;-75
2021/01/09 04:32:15;;;;;;;3.42;2.10;;;-2.40;99.90;;;;;;5051520;28;20397;-75
2021/01/09 04:34:41;;;;;;;3.00;2.00;;;-2.30;99.90;;;;;;5051847;28;20710;-75
2021/01/09 04:37:06;;;;;;;4.10;2.30;;;-2.50;99.90;;;;;;5051362;28;20865;-75
2021/01/09 04:39:32;;;;;;;2.80;2.10;;;-2.40;99.90;;;;;;5050851;28;20382;-75
2021/01/09 04:41:58;;;;;;;5.97;2.23;;;-2.40;99.90;;;;;;5050713;28;20479;-76
2021/01/09 04:44:23;;;;;;;3.67;2.10;;;-2.30;99.90;;;;;;5051657;28;20435;-75
2021/01/09 04:46:51;;;;;;;2.20;2.00;;;-1.20;99.90;;;;;;5051626;28;20390;-75
2021/01/09 04:49:19;;;;;;;5.32;2.95;;;-2.20;99.90;;;;;;5050913;28;20758;-75
2021/01/09 04:51:46;;;;;;;2.70;2.30;;;-2.40;99.90;;;;;;5051586;28;20381;-75
2021/01/09 04:54:17;;;;;;;2.70;2.20;;;-2.00;99.90;;;;;;5051175;28;20818;-75
2021/01/09 04:56:48;;;;;;;2.80;2.00;;;-2.10;99.90;;;;;;5051504;28;20374;-76
2021/01/09 04:59:15;;;;;;;3.90;2.63;;;-2.00;99.90;;;;;;5050900;28;20380;-73
2021/01/09 05:01:41;;;;;;;2.67;2.00;;;-1.90;99.90;;;;;;5051350;28;20392;-75
2021/01/09 05:04:06;;;;;;;3.38;2.25;;;-2.10;99.90;;;;;;5050674;28;20416;-74
2021/01/09 05:06:32;;;;;;;3.97;2.30;;;-2.30;99.90;;;;;;5051451;28;20909;-74
2021/01/09 05:08:58;;;;;;;4.00;2.30;;;-2.30;99.90;;;;;;5050830;28;20469;-75
2021/01/09 05:11:23;;;;;;;3.33;2.17;;;-2.10;99.90;;;;;;5051387;28;20494;-74
2021/01/09 05:13:49;;;;;;;2.90;1.75;;;-2.00;99.90;;;;;;5051352;28;20446;-73
2021/01/09 05:16:16;;;;;;;2.60;2.30;;;-2.20;99.90;;;;;;5050417;28;20775;-74
2021/01/09 05:18:42;;;;;;;3.40;2.70;;;-2.50;99.90;;;;;;5051326;28;20373;-74
2021/01/09 05:21:12;;;;;;;3.20;2.20;;;-2.10;99.90;;;;;;5050561;28;20773;-74
2021/01/09 05:23:52;;;;;;;4.00;2.53;;;-2.40;99.90;;;;;;5050940;28;20614;-74
2021/01/09 05:26:22;;;;;;;3.75;2.30;;;-0.40;99.90;;;;;;5050343;28;20905;-74
2021/01/09 05:28:50;;;;;;;3.80;2.60;;;-1.90;99.90;;;;;;5051137;28;20392;-76
2021/01/09 05:31:17;;;;;;;2.63;1.80;;;-2.10;99.90;;;;;;5050432;28;20711;-74
2021/01/09 05:33:43;;;;;;;2.40;1.70;;;-2.00;99.90;;;;;;5051079;28;20405;-75
2021/01/09 05:36:10;;;;;;;4.43;2.35;;;-2.40;99.90;;;;;;5050373;28;20738;-76
2021/01/09 05:38:37;;;;;;;2.55;2.20;;;-2.20;99.90;;;;;;5051004;28;20386;-74
2021/01/09 05:41:11;;;;;;;2.83;2.00;;;-2.00;99.90;;;;;;5050114;28;20397;-75
2021/01/09 05:43:37;;;;;;;2.88;2.58;;;-1.90;99.90;;;;;;5050956;28;20409;-74
2021/01/09 05:46:05;;;;;;;2.90;2.20;;;-1.80;99.90;;;;;;5050197;28;20400;-75
2021/01/09 05:48:32;;;;;;;3.30;2.20;;;-2.30;99.90;;;;;;5050725;28;20430;-74
2021/01/09 05:51:02;;;;;;;3.33;2.13;;;1.10;99.90;;;;;;5051430;28;20393;-74
2021/01/09 05:53:42;;;;;;;3.55;2.10;;;-2.00;99.90;;;;;;5055048;28;20818;-74
2021/01/09 05:56:10;;;;;;;3.55;1.75;;;-2.00;99.90;;;;;;5054311;28;20464;-74
2021/01/09 05:58:36;;;;;;;3.10;2.13;;;-2.10;99.90;;;;;;5054867;28;20382;-74
2021/01/09 06:01:13;;;;;;;3.33;2.20;;;-1.70;99.90;;;;;;5054107;28;20397;-73
2021/01/09 06:03:43;;;;;;;2.83;2.05;;;-1.90;99.90;;;;;;5054885;28;20416;-76
2021/01/09 06:06:38;;;;;;;2.15;1.75;;;-1.70;99.90;;;;;;5054213;28;20377;-74
2021/01/09 06:09:07;;;;;;;3.80;2.03;;;-1.70;99.90;;;;;;5053986;28;20850;-74
2021/01/09 06:11:41;;;;;;;2.55;2.35;;;-0.40;99.90;;;;;;5054643;28;20381;-76
2021/01/09 06:14:12;;;;;;;2.55;1.95;;;-1.80;99.90;;;;;;5054093;28;20385;-77
2021/01/09 06:16:40;;;;;;;2.80;2.10;;;-1.80;99.90;;;;;;5054579;28;20385;-76
2021/01/09 06:19:06;;;;;;;2.65;1.95;;;-0.10;99.90;;;;;;5054055;28;20377;-76
2021/01/09 06:21:34;;;;;;;2.70;2.07;;;-2.20;99.90;;;;;;5054246;28;20919;-76
2021/01/09 06:24:02;;;;;;;2.83;2.30;;;-0.40;99.90;;;;;;5054479;28;20417;-76
2021/01/09 06:26:29;;;;;;;3.13;2.30;;;-1.50;99.90;;;;;;5054399;28;20377;-76
2021/01/09 06:28:58;;;;;;;3.35;2.28;;;-2.30;99.90;;;;;;5054432;28;20383;-73
2021/01/09 06:31:28;;;;;;;3.00;1.58;;;-2.00;99.90;;;;;;5053699;28;20443;-74
2021/01/09 06:34:00;;;;;;;3.00;2.30;;;-2.00;99.90;;;;;;5053177;28;20397;-74
2021/01/09 06:36:26;;;;;;;2.33;1.90;;;-2.10;99.90;;;;;;5053965;28;20374;-75
2021/01/09 06:38:54;;;;;;;2.47;1.83;;;-2.20;99.90;;;;;;5053976;28;20488;-74
2021/01/09 06:41:22;;;;;;;2.80;2.20;;;-2.10;99.90;;;;;;5053334;28;20859;-75
2021/01/09 06:43:54;;;;;;;2.88;1.90;;;-2.00;99.90;;;;;;5054400;28;20415;-75
2021/01/09 06:46:28;;;;;;;2.70;2.22;;;-1.90;99.90;;;;;;5053246;28;20402;-75
2021/01/09 06:48:54;;;;;;;2.80;2.20;;;-1.40;99.90;;;;;;5054131;28;20388;-75
2021/01/09 06:51:34;;;;;;;4.60;2.28;;;-2.00;99.90;;;;;;5053315;28;20385;-75
2021/01/09 06:54:15;;;;;;;2.77;2.00;;;-2.00;99.90;;;;;;5053950;28;20394;-75
2021/01/09 06:56:43;;;;;;;2.85;2.55;;;-1.80;99.90;;;;;;5053775;28;20379;-75
2021/01/09 06:59:08;;;;;;;2.53;2.08;;;-1.90;99.90;;;;;;5053495;28;20393;-75
2021/01/09 07:01:37;;;;;;;3.73;2.43;;;-1.70;99.90;;;;;;5053779;28;20386;-74
2021/01/09 07:04:04;;;;;;;2.30;2.03;;;-1.80;99.90;;;;;;5052659;28;20425;-75
2021/01/09 07:07:00;;;;;;;2.40;2.20;;;-1.70;99.90;;;;;;5053685;28;20382;-76
2021/01/09 07:09:28;;;;;;;2.85;2.53;;;-1.80;99.90;;;;;;5053024;28;20392;-74
2021/01/09 07:11:55;;;;;;;3.72;2.22;;;-2.00;99.90;;;;;;5053614;28;20382;-75
2021/01/09 07:14:21;;;;;;;2.58;1.80;;;-1.50;99.90;;;;;;5052923;28;20861;-76
2021/01/09 07:16:47;;;;;;;2.85;2.00;;;0.40;99.90;;;;;;5053213;28;20750;-75
2021/01/09 07:19:14;;;;;;;3.28;2.35;;;-1.90;99.90;;;;;;5053010;28;20373;-74
2021/01/09 07:21:40;;;;;;;3.13;2.50;;;-1.40;99.90;;;;;;5053370;28;20389;-75
2021/01/09 07:24:09;;;;;;;2.55;2.20;;;-1.70;99.90;;;;;;5052709;28;20463;-75
2021/01/09 07:26:39;;;;;;;4.47;2.08;;;-1.80;99.90;;;;;;5053129;28;20478;-75
2021/01/09 07:29:05;;;;;;;3.35;2.53;;;-1.80;99.90;;;;;;5052410;28;20442;-76
2021/01/09 07:31:34;;;;;;;2.90;2.33;;;-1.70;99.90;;;;;;5052860;28;20870;-75
2021/01/09 07:34:00;;;;;;;3.55;2.50;;;-1.90;99.90;;;;;;5053148;28;20420;-75
2021/01/09 07:36:26;;;;;;;2.57;2.20;;;-1.30;99.90;;;;;;5052377;28;20373;-74
2021/01/09 07:39:02;;;;;;;3.58;2.20;;;0.00;99.90;;;;;;5053253;28;20380;-76
2021/01/09 07:41:38;;;;;;;3.70;2.58;;;-1.80;99.90;;;;;;5052347;28;20436;-74
2021/01/09 07:44:18;;;;;;;3.80;2.20;;;-2.00;99.90;;;;;;5052917;28;20496;-76
2021/01/09 07:46:58;;;;;;;3.85;2.40;;;-1.60;99.90;;;;;;5052819;28;20386;-76
2021/01/09 07:49:36;;;;;;;3.55;2.38;;;-1.30;99.90;;;;;;5052369;28;20390;-76
2021/01/09 07:52:03;;;;;;;2.47;1.93;;;-1.40;99.90;;;;;;5052872;28;20393;-76
2021/01/09 07:54:51;;;;;;;4.35;2.40;;;-1.90;99.90;;;;;;5051938;28;20795;-76
2021/01/09 07:57:21;;;;;;;4.05;2.75;;;-1.20;99.90;;;;;;5052152;28;20382;-76
2021/01/09 07:59:59;;;;;;;5.07;2.95;;;-1.70;99.90;;;;;;5052798;28;20459;-76
2021/01/09 08:02:26;;;;;;;3.13;2.50;;;-1.30;99.90;;;;;;5051578;28;20407;-76
2021/01/09 08:05:21;;;;;;;3.43;2.90;;;-1.40;99.90;;;;;;5052594;28;20461;-76
2021/01/09 08:07:52;;;;;;;3.20;2.60;;;-1.30;99.90;;;;;;5051918;28;20393;-76
2021/01/09 08:10:31;;;;;;;3.63;2.80;;;-1.40;99.90;;;;;;5052006;28;20725;-76
2021/01/09 08:12:58;;;;;;;3.88;2.55;;;-0.90;99.90;;;;;;5052545;28;20396;-76
2021/01/09 08:15:25;;;;;;;2.87;2.37;;;0.40;99.90;;;;;;5050371;28;20417;-77
2021/01/09 08:17:51;;;;;;;3.13;2.50;;;-1.10;99.90;;;;;;5052209;28;20381;-76
2021/01/09 08:20:18;;;;;;;3.30;2.30;;;-0.90;99.90;;;;;;5051731;28;20428;-76
2021/01/09 08:22:57;;;;;;;4.05;3.30;;;-1.10;99.90;;;;;;5052175;28;20524;-76
2021/01/09 08:25:25;;;;;;;5.43;3.08;;;-1.90;99.90;;;;;;5051684;28;20414;-76
2021/01/09 08:27:53;;;;;;;3.90;2.50;;;-1.00;99.90;;;;;;5052136;28;20413;-74
2021/01/09 08:30:21;;;;;;;4.93;3.17;;;-1.10;99.90;;;;;;5051727;28;20439;-74
2021/01/09 08:32:47;;;;;;;3.38;2.35;;;-1.20;99.90;;;;;;5052076;28;20757;-73
2021/01/09 08:35:14;;;;;;;6.07;2.97;;;-0.80;99.90;;;;;;5050260;28;20393;-77
2021/01/09 08:37:41;;;;;;;4.45;2.63;;;-0.10;99.90;;;;;;5051925;28;20389;-74
2021/01/09 08:40:12;;;;;;;4.30;3.15;;;-1.10;99.90;;;;;;5051881;28;20477;-74
2021/01/09 08:42:50;;;;;;;5.53;3.63;;;-1.30;99.90;;;;;;5051824;28;20435;-76
2021/01/09 08:45:15;;;;;;;2.58;2.38;;;-0.90;99.90;;;;;;5050996;28;20386;-75
2021/01/09 08:47:43;;;;;;;4.70;2.73;;;0.70;99.90;;;;;;5051745;28;20428;-75
2021/01/09 08:50:12;;;;;;;5.70;3.08;;;-1.00;99.90;;;;;;5051695;28;20417;-76
2021/01/09 08:52:43;;;;;;;3.88;2.70;;;-1.30;99.90;;;;;;5051806;28;20402;-74
2021/01/09 08:55:11;;;;;;;5.25;2.78;;;-1.40;99.90;;;;;;5051748;28;20435;-75
2021/01/09 08:57:37;;;;;;;5.35;2.95;;;-1.10;99.90;;;;;;5051476;28;20373;-76
2021/01/09 09:00:03;;;;;;;5.38;2.88;;;-1.30;99.90;;;;;;5051611;28;20454;-76
2021/01/09 09:02:33;;;;;;;5.05;3.13;;;-0.80;99.90;;;;;;5050403;28;20444;-76
2021/01/09 09:05:02;;;;;;;5.05;2.75;;;-1.10;99.90;;;;;;5051514;28;20386;-75
2021/01/09 09:07:32;;;;;;;3.60;2.80;;;-1.00;99.90;;;;;;5050584;28;20476;-75
2021/01/09 09:10:00;;;;;;;4.50;3.20;;;-0.90;99.90;;;;;;5051565;28;20388;-75
2021/01/09 09:12:26;;;;;;;3.83;2.88;;;-0.80;99.90;;;;;;5049554;28;20382;-75
2021/01/09 09:14:59;;;;;;;4.37;3.37;;;-0.70;99.90;;;;;;5051406;28;20730;-76
2021/01/09 09:17:25;;;;;;;3.83;2.67;;;-0.50;99.90;;;;;;5050609;28;20468;-75
2021/01/09 09:19:51;;;;;;;4.07;2.90;;;0.90;99.90;;;;;;5051188;28;20477;-75
2021/01/09 09:22:30;;;;;;;4.60;2.70;;;-0.70;99.90;;;;;;5050413;28;20835;-74
2021/01/09 09:24:56;;;;;;;3.92;3.08;;;-0.50;99.90;;;;;;5051602;28;20382;-76
2021/01/09 09:27:23;;;;;;;4.25;3.20;;;0.80;99.90;;;;;;5050484;28;20381;-77
2021/01/09 09:30:01;;;;;;;6.07;3.20;;;-0.40;99.90;;;;;;5051268;28;20385;-77
2021/01/09 09:32:27;;;;;;;4.55;3.35;;;0.10;99.90;;;;;;5049858;28;20489;-76
2021/01/09 09:34:56;;;;;;;5.00;3.00;;;0.10;99.90;;;;;;5051110;28;20453;-76
2021/01/09 09:37:21;;;;;;;4.50;3.03;;;0.50;99.90;;;;;;5050299;28;20381;-76
2021/01/09 09:39:47;;;;;;;3.47;2.90;;;-0.20;99.90;;;;;;5050911;28;20383;-76
2021/01/09 09:42:13;;;;;;;5.13;3.70;;;2.10;99.90;;;;;;5050485;28;20409;-77
2021/01/09 09:44:41;;;;;;;4.78;3.47;;;2.40;99.90;;;;;;5050745;28;20492;-76
2021/01/09 09:47:23;;;;;;;4.63;3.08;;;0.10;99.90;;;;;;5050868;28;20942;-76
2021/01/09 09:49:49;;;;;;;4.80;3.80;;;0.30;99.90;;;;;;5050734;28;20381;-76
2021/01/09 09:52:19;;;;;;;3.63;3.10;;;0.40;99.90;;;;;;5050265;28;20378;-77
2021/01/09 09:54:45;;;;;;;5.22;3.60;;;0.60;99.90;;;;;;5050841;28;20722;-77
2021/01/09 09:57:29;;;;;;;4.05;3.30;;;0.40;99.90;;;;;;5051085;28;20440;-75
2021/01/09 10:00:06;;;;;;;4.25;3.70;;;1.00;99.90;;;;;;5050909;28;20757;-76
2021/01/09 10:02:32;;;;;;;3.80;3.05;;;0.90;99.90;;;;;;5050148;28;20417;-76
2021/01/09 10:04:58;;;;;;;3.50;3.20;;;1.10;99.90;;;;;;5050825;28;20417;-76
2021/01/09 10:07:24;;;;;;;3.97;3.47;;;1.20;99.90;;;;;;5050166;28;20506;-76
2021/01/09 10:09:50;;;;;;;3.20;2.50;;;1.20;99.90;;;;;;5050687;28;20392;-75
2021/01/09 10:12:16;;;;;;;3.65;2.60;;;1.30;99.90;;;;;;5050270;28;20385;-75
2021/01/09 10:14:41;;;;;;;4.13;3.00;;;2.50;99.90;;;;;;5050878;28;20435;-77
2021/01/09 10:17:14;;;;;;;4.88;3.42;;;1.50;99.90;;;;;;5050639;28;20393;-76
2021/01/09 10:19:40;;;;;;;4.43;3.13;;;1.30;99.90;;;;;;5050540;28;20477;-76
2021/01/09 10:22:06;;;;;;;5.30;3.90;;;3.10;99.90;;;;;;5050419;28;20456;-76
2021/01/09 10:24:31;;;;;;;3.67;2.90;;;1.70;99.90;;;;;;5049842;28;20402;-76
2021/01/09 10:26:59;;;;;;;4.25;3.10;;;3.10;99.90;;;;;;5050352;28;20381;-76
2021/01/09 10:29:25;;;;;;;5.43;3.70;;;3.90;99.90;;;;;;5049563;28;20382;-76
2021/01/09 10:31:51;;;;;;;5.50;3.57;;;3.70;99.90;;;;;;5050883;28;20922;-76
2021/01/09 10:34:16;;;;;;;3.70;2.87;;;4.20;99.90;;;;;;5049879;28;20385;-76
2021/01/09 10:36:42;;;;;;;4.40;3.03;;;1.90;99.90;;;;;;5050627;28;20724;-76
2021/01/09 10:39:08;;;;;;;4.53;3.80;;;3.60;99.90;;;;;;5052800;28;20385;-76
2021/01/09 10:41:34;;;;;;;4.25;3.60;;;2.20;99.90;;;;;;5053440;28;20421;-76
2021/01/09 10:43:59;;;;;;;4.40;3.70;;;2.40;99.90;;;;;;5053991;28;20417;-75
2021/01/09 10:46:30;;;;;;;4.68;3.47;;;2.40;99.90;;;;;;5053342;28;20390;-76
2021/01/09 10:48:57;;;;;;;5.57;4.13;;;4.10;99.90;;;;;;5054122;28;20396;-76
2021/01/09 10:51:24;;;;;;;5.32;3.72;;;2.50;99.90;;;;;;5053547;28;20420;-76
2021/01/09 10:53:50;;;;;;;6.93;4.53;;;2.70;99.90;;;;;;5052569;28;20535;-75
2021/01/09 10:56:16;;;;;;;4.65;4.10;;;4.20;99.90;;;;;;5053686;28;20496;-75
2021/01/09 10:58:43;;;;;;;7.40;4.63;;;4.50;99.90;;;;;;5053829;28;20436;-77
2021/01/09 11:01:09;;;;;;;6.00;4.85;;;3.30;99.90;;;;;;5053623;28;20393;-78
2021/01/09 11:03:35;;;;;;;5.97;4.68;;;3.30;99.90;;;;;;5052869;28;20504;-78
2021/01/09 11:06:01;;;;;;;6.80;5.50;;;4.60;99.90;;;;;;5053734;28;20382;-77
2021/01/09 11:08:27;;;;;;;8.32;5.63;;;4.00;99.90;;;;;;5052895;28;20381;-77
2021/01/09 11:10:54;;;;;;;6.38;4.63;;;3.60;99.90;;;;;;5053600;28;20378;-78
2021/01/09 11:13:20;;;;;;;6.60;5.22;;;4.70;99.90;;;;;;5052721;28;20742;-78
2021/01/09 11:15:50;;;;;;;6.20;5.10;;;4.70;99.90;;;;;;5053511;28;20381;-77
2021/01/09 11:18:16;;;;;;;6.20;4.80;;;3.80;99.90;;;;;;5053152;28;20459;-77
2021/01/09 11:20:50;;;;;;;6.82;4.82;;;3.40;99.90;;;;;;5052988;28;20389;-77
2021/01/09 11:23:16;;;;;;;7.05;5.00;;;3.40;99.90;;;;;;5053348;28;20889;-77
2021/01/09 11:25:44;;;;;;;7.72;5.30;;;3.70;99.90;;;;;;5054954;28;20440;-75
2021/01/09 11:28:10;;;;;;;7.85;5.10;;;4.10;98.40;;;;;;5048375;28;20387;-76
2021/01/09 11:30:36;;;;;;;7.65;5.25;;;4.50;97.10;;;;;;5033170;28;20379;-77
2021/01/09 11:33:02;;;;;;;6.43;4.20;;;6.20;98.50;;;;;;5033561;28;20406;-75
2021/01/09 11:35:27;;;;;;;5.13;4.43;;;5.10;96.20;;;;;;5032677;28;20801;-76
2021/01/09 11:37:56;;;;;;;5.17;4.40;;;6.90;99.60;;;;;;5033480;28;20391;-77
2021/01/09 11:40:21;;;;;;;6.03;4.85;;;6.10;95.30;;;;;;5032710;28;20387;-76
2021/01/09 11:42:47;;;;;;;6.88;4.88;;;6.70;96.60;;;;;;5033331;28;20415;-76
2021/01/09 11:45:15;;;;;;;6.82;5.20;;;5.40;96.90;;;;;;5037283;28;20374;-76
2021/01/09 11:47:41;;;;;;;7.78;5.68;;;5.60;93.50;;;;;;5047659;28;20410;-76
2021/01/09 11:50:08;;;;;;;7.05;5.10;;;5.80;96.40;;;;;;5032633;28;20466;-77
2021/01/09 11:52:34;;;;;;;6.45;4.95;;;6.00;95.80;;;;;;5032425;28;20387;-75
2021/01/09 11:54:59;;;;;;;6.10;5.30;;;6.10;92.60;;;;;;5032562;28;20379;-76
2021/01/09 11:57:26;;;;;;;6.43;5.10;;;8.00;91.70;;;;;;5032283;28;20388;-76
2021/01/09 11:59:51;;;;;;;7.63;4.82;;;6.60;91.50;;;;;;5032627;28;20442;-75
2021/01/09 12:02:17;;;;;;;5.30;4.80;;;6.50;94.60;;;;;;5032982;28;20391;-76
2021/01/09 12:04:43;;;;;;;5.60;4.70;;;;;;;;;;5030927;28;20431;-78
2021/01/09 12:07:08;;;;;;;5.15;4.60;;;5.60;90.00;;;;;;5031833;28;20871;-78
2021/01/09 12:09:34;;;;;;;5.20;4.20;;;5.80;87.90;;;;;;5050092;28;20439;-77
2021/01/09 12:12:00;;;;;;;5.60;4.37;;;6.40;86.70;;;;;;5052169;28;20377;-78
2021/01/09 12:14:25;;;;;;;5.97;4.47;;;7.60;90.30;;;;;;5051318;28;20563;-79
2021/01/09 12:16:51;;;;;;;5.40;4.30;;;6.60;85.90;;;;;;5051911;28;20434;-78
2021/01/09 12:19:17;;;;;;;5.30;4.57;;;8.80;87.90;;;;;;5050940;28;20394;-78
2021/01/09 12:21:42;;;;;;;5.18;3.85;;;8.00;90.20;;;;;;5051408;28;20377;-78
2021/01/09 12:24:08;;;;;;;5.47;3.50;;;;;;;;;;5052220;28;20409;-77
2021/01/09 12:26:34;;;;;;;4.65;3.80;;;6.30;88.20;;;;;;5051367;28;20405;-77
2021/01/09 12:29:00;;;;;;;4.37;3.53;;;6.00;87.30;;;;;;5047358;28;20430;-78
2021/01/09 12:31:52;;;;;;;5.30;4.20;;;6.20;88.80;;;;;;5031473;28;20388;-78
2021/01/09 12:34:18;;;;;;;4.40;3.67;;;6.40;94.00;;;;;;5031336;28;20457;-78
2021/01/09 12:36:48;;;;;;;3.05;2.70;;;7.40;90.00;;;;;;5041393;28;20725;-78
2021/01/09 12:39:14;;;;;;;3.45;3.05;;;6.10;83.00;;;;;;5053838;28;20396;-79
2021/01/09 12:41:40;;;;;;;4.40;3.50;;;5.60;86.60;;;;;;5067962;28;20399;-77
2021/01/09 12:44:10;;;;;;;4.17;3.43;;;4.70;93.50;;;;;;5057888;28;20657;-78
2021/01/09 12:46:44;;;;;;;4.20;3.80;;;6.30;96.10;;;;;;5065554;28;20452;-77
2021/01/09 12:49:13;;;;;;;4.10;3.13;;;;;;;;;;5055409;28;20390;-78
2021/01/09 12:51:39;;;;;;;3.70;3.40;;;3.70;89.90;;;;;;5067335;28;20422;-75
2021/01/09 12:54:06;;;;;;;4.93;3.65;;;3.80;93.20;;;;;;5057223;28;20714;-75